Time;durP1;ratioP1;P1;durP2;ratioP2;P2;SDS_P1;SDS_P2;PMS_P1;PMS_P2;Temp;Humidity;BMP_temperature;BMP_pressure;BME280_temperature;BME280_humidity;BME280_pressure;Samples;Min_cycle;Max_cycle;Signal;HPM_P1;HPM_P2
2023/10/31 00:01:21;;;;;;;2.83;1.38;;;10.60;99.90;;;;;;5007061;28;20144;-63
2023/10/31 00:03:47;;;;;;;5.68;1.38;;;10.60;99.90;;;;;;5025386;28;20057;-62
2023/10/31 00:06:13;;;;;;;3.85;1.30;;;10.60;99.90;;;;;;5008864;28;20156;-62
2023/10/31 00:08:38;;;;;;;3.67;1.20;;;10.60;99.90;;;;;;5004914;28;20099;-62
2023/10/31 00:11:04;;;;;;;6.38;1.65;;;10.50;99.90;;;;;;5012554;28;20441;-62
2023/10/31 00:13:30;;;;;;;5.78;1.80;;;10.50;99.90;;;;;;5024795;28;20545;-62
2023/10/31 00:15:56;;;;;;;4.60;1.77;;;10.50;99.90;;;;;;5008176;28;20041;-61
2023/10/31 00:18:21;;;;;;;6.53;2.03;;;10.50;99.90;;;;;;5023782;28;20045;-61
2023/10/31 00:20:47;;;;;;;4.63;2.10;;;10.50;99.90;;;;;;5006306;28;20458;-62
2023/10/31 00:23:15;;;;;;;6.68;2.13;;;10.50;99.90;;;;;;5022199;28;20067;-62
2023/10/31 00:25:40;;;;;;;5.45;1.88;;;10.50;99.90;;;;;;5025735;28;20048;-61
2023/10/31 00:28:06;;;;;;;5.90;1.77;;;10.50;99.90;;;;;;5009003;28;20049;-61
2023/10/31 00:30:32;;;;;;;5.45;1.60;;;10.60;99.90;;;;;;5003153;28;20806;-62
2023/10/31 00:32:57;;;;;;;8.23;1.80;;;10.50;99.90;;;;;;5023541;28;20480;-62
2023/10/31 00:35:23;;;;;;;6.45;2.08;;;10.60;99.90;;;;;;5023417;28;20423;-63
2023/10/31 00:37:49;;;;;;;7.85;2.10;;;10.60;99.90;;;;;;4990334;28;20041;-62
2023/10/31 00:40:16;;;;;;;5.82;2.17;;;10.50;99.90;;;;;;5024921;28;20148;-62
2023/10/31 00:42:42;;;;;;;4.10;1.90;;;10.50;99.90;;;;;;5008388;28;20127;-62
2023/10/31 00:45:08;;;;;;;4.47;1.98;;;10.50;99.90;;;;;;5026142;28;20078;-62
2023/10/31 00:47:35;;;;;;;7.53;2.10;;;10.50;99.90;;;;;;5021692;28;21604;-62
2023/10/31 00:50:01;;;;;;;6.72;1.80;;;10.50;99.90;;;;;;5010246;28;20138;-63
2023/10/31 00:52:27;;;;;;;5.72;1.40;;;10.50;99.90;;;;;;5025361;28;20167;-63
2023/10/31 00:54:52;;;;;;;3.20;1.48;;;10.50;99.90;;;;;;4996343;28;20136;-61
2023/10/31 00:57:18;;;;;;;6.03;1.70;;;10.40;99.90;;;;;;5010243;28;20102;-62
2023/10/31 00:59:44;;;;;;;6.13;1.60;;;10.50;99.90;;;;;;5024140;28;20048;-62
2023/10/31 01:02:09;;;;;;;6.03;1.75;;;10.50;99.90;;;;;;5029725;28;20041;-62
2023/10/31 01:04:38;;;;;;;7.28;2.03;;;10.40;99.90;;;;;;5007309;28;20549;-62
2023/10/31 01:07:04;;;;;;;6.43;1.77;;;10.40;99.90;;;;;;5033315;28;20426;-63
2023/10/31 01:09:30;;;;;;;6.53;1.77;;;10.40;99.90;;;;;;5011741;28;20101;-62
2023/10/31 01:11:56;;;;;;;5.32;1.52;;;10.40;99.90;;;;;;4996289;28;20041;-62
2023/10/31 01:14:22;;;;;;;5.68;1.73;;;10.50;99.90;;;;;;5006479;28;20041;-62
2023/10/31 01:16:47;;;;;;;5.15;1.90;;;10.40;99.90;;;;;;5012032;28;20044;-62
2023/10/31 01:19:13;;;;;;;6.72;1.80;;;10.40;99.90;;;;;;5012772;28;20057;-62
2023/10/31 01:21:39;;;;;;;5.55;1.60;;;10.40;99.90;;;;;;4994190;28;20397;-62
2023/10/31 01:24:05;;;;;;;6.07;2.30;;;10.40;99.90;;;;;;5007626;28;20060;-61
2023/10/31 01:26:30;;;;;;;6.15;2.10;;;10.40;99.90;;;;;;5013350;28;20364;-63
2023/10/31 01:28:56;;;;;;;4.82;2.20;;;10.40;99.90;;;;;;5007204;28;20063;-63
2023/10/31 01:31:22;;;;;;;6.70;1.80;;;10.40;99.90;;;;;;4996132;28;20028;-63
2023/10/31 01:33:47;;;;;;;6.90;2.10;;;10.40;99.90;;;;;;5030287;28;20474;-62
2023/10/31 01:36:14;;;;;;;5.85;1.52;;;10.40;99.90;;;;;;5026227;28;20106;-63
2023/10/31 01:38:40;;;;;;;5.50;1.60;;;10.40;99.90;;;;;;5026946;28;20056;-62
2023/10/31 01:41:06;;;;;;;5.03;1.58;;;10.40;99.90;;;;;;5009996;28;20033;-62
2023/10/31 01:43:36;;;;;;;4.75;1.33;;;10.30;99.90;;;;;;5014745;28;20480;-63
2023/10/31 01:46:03;;;;;;;6.03;1.33;;;10.30;99.90;;;;;;5005907;28;20056;-62
2023/10/31 01:48:30;;;;;;;4.00;1.50;;;10.30;99.90;;;;;;5010685;28;20045;-62
2023/10/31 01:50:58;;;;;;;4.63;1.27;;;10.30;99.90;;;;;;5009168;28;20446;-62
2023/10/31 01:53:26;;;;;;;3.95;1.30;;;10.30;99.90;;;;;;5021486;28;20057;-62
2023/10/31 01:55:55;;;;;;;4.07;1.27;;;10.20;99.90;;;;;;5020824;28;20148;-62
2023/10/31 01:58:25;;;;;;;5.47;1.58;;;10.20;99.90;;;;;;5012690;28;20049;-63
2023/10/31 02:00:51;;;;;;;7.93;1.60;;;10.20;99.90;;;;;;5025242;28;20069;-62
2023/10/31 02:03:17;;;;;;;4.20;1.25;;;10.20;99.90;;;;;;4939367;28;20437;-62
2023/10/31 02:05:43;;;;;;;5.18;1.40;;;10.20;99.90;;;;;;4999841;28;20093;-63
2023/10/31 02:08:09;;;;;;;5.10;1.27;;;10.20;99.90;;;;;;5007954;28;20172;-62
2023/10/31 02:10:35;;;;;;;4.20;1.52;;;10.20;99.90;;;;;;5004281;28;20049;-62
2023/10/31 02:13:11;;;;;;;5.68;1.52;;;10.20;99.90;;;;;;5022279;28;20805;-62
2023/10/31 02:15:37;;;;;;;4.72;1.30;;;10.20;99.90;;;;;;5004123;28;20451;-62
2023/10/31 02:18:03;;;;;;;5.80;1.48;;;10.20;99.90;;;;;;5010478;28;20064;-62
2023/10/31 02:20:29;;;;;;;6.88;1.20;;;10.20;99.90;;;;;;5004867;28;20052;-63
2023/10/31 02:22:54;;;;;;;8.77;1.75;;;10.20;99.90;;;;;;4992854;28;20045;-63
2023/10/31 02:25:20;;;;;;;10.65;2.00;;;10.20;99.90;;;;;;5022374;28;20056;-62
2023/10/31 02:27:46;;;;;;;5.78;1.38;;;10.20;99.90;;;;;;4960582;28;20524;-62
2023/10/31 02:30:12;;;;;;;8.90;1.52;;;10.20;99.90;;;;;;4993348;28;20481;-62
2023/10/31 02:32:38;;;;;;;5.13;1.60;;;10.10;99.90;;;;;;4994524;28;20501;-62
2023/10/31 02:35:04;;;;;;;5.35;1.40;;;10.20;99.90;;;;;;5006526;28;20168;-62
2023/10/31 02:37:30;;;;;;;7.75;1.98;;;10.20;99.90;;;;;;5031345;28;20116;-63
2023/10/31 02:39:56;;;;;;;5.18;1.90;;;10.10;99.90;;;;;;5023096;28;20396;-62
2023/10/31 02:42:21;;;;;;;4.82;1.67;;;10.20;99.90;;;;;;5023078;28;20476;-63
2023/10/31 02:44:47;;;;;;;5.88;2.00;;;10.10;99.90;;;;;;5025200;28;20049;-63
2023/10/31 02:47:13;;;;;;;10.27;2.15;;;10.10;99.90;;;;;;5001990;28;20040;-62
2023/10/31 02:49:39;;;;;;;3.97;1.77;;;10.10;99.90;;;;;;5016267;28;20124;-63
2023/10/31 02:52:05;;;;;;;7.03;2.20;;;10.10;99.90;;;;;;5025317;28;20087;-63
2023/10/31 02:54:30;;;;;;;7.97;2.63;;;10.10;99.90;;;;;;5007808;28;20060;-63
2023/10/31 02:56:57;;;;;;;7.60;2.22;;;10.10;99.90;;;;;;5009735;28;20044;-62
2023/10/31 02:59:22;;;;;;;7.88;2.10;;;10.10;99.90;;;;;;5011368;28;20051;-64
2023/10/31 03:01:48;;;;;;;5.72;2.47;;;10.10;99.90;;;;;;5018403;28;20041;-62
2023/10/31 03:04:14;;;;;;;5.70;2.28;;;10.10;99.90;;;;;;4993925;28;20052;-62
2023/10/31 03:06:40;;;;;;;5.85;2.17;;;10.10;99.90;;;;;;5009379;28;20387;-62
2023/10/31 03:09:06;;;;;;;7.40;2.35;;;10.10;99.90;;;;;;4993277;28;20048;-62
2023/10/31 03:11:32;;;;;;;7.07;2.25;;;10.10;99.90;;;;;;4990705;28;20030;-63
2023/10/31 03:13:59;;;;;;;8.55;2.42;;;10.10;99.90;;;;;;5020149;28;20163;-63
2023/10/31 03:16:25;;;;;;;10.65;2.42;;;10.10;99.90;;;;;;5006418;28;20053;-63
2023/10/31 03:18:51;;;;;;;10.07;3.13;;;10.10;99.90;;;;;;5003763;28;20105;-62
2023/10/31 03:21:17;;;;;;;8.77;2.83;;;10.10;99.90;;;;;;5021056;28;20523;-62
2023/10/31 03:23:52;;;;;;;8.77;3.30;;;10.10;99.90;;;;;;5006856;28;20115;-63
2023/10/31 03:26:19;;;;;;;8.25;3.22;;;10.10;99.90;;;;;;5011692;28;20167;-63
2023/10/31 03:28:45;;;;;;;9.25;3.40;;;10.10;99.90;;;;;;5024017;28;20124;-63
2023/10/31 03:31:12;;;;;;;9.05;3.03;;;10.10;99.90;;;;;;5009929;28;20219;-62
2023/10/31 03:33:38;;;;;;;7.68;3.63;;;10.10;99.90;;;;;;5009525;28;20049;-63
2023/10/31 03:36:08;;;;;;;10.88;4.03;;;10.10;99.90;;;;;;5007608;28;20408;-62
2023/10/31 03:38:34;;;;;;;6.43;3.72;;;10.10;99.90;;;;;;4990611;28;20083;-62
2023/10/31 03:41:00;;;;;;;8.43;3.97;;;10.10;99.90;;;;;;5004947;28;20765;-63
2023/10/31 03:43:26;;;;;;;7.38;3.58;;;10.10;99.90;;;;;;5021992;28;20053;-63
2023/10/31 03:45:52;;;;;;;10.60;3.92;;;10.10;99.90;;;;;;4992308;28;20041;-62
2023/10/31 03:48:18;;;;;;;8.60;3.80;;;10.10;99.90;;;;;;4973844;28;20040;-63
2023/10/31 03:50:44;;;;;;;10.30;4.30;;;10.10;99.90;;;;;;5007026;28;20045;-63
2023/10/31 03:53:10;;;;;;;10.43;3.88;;;10.10;99.90;;;;;;5008141;28;20486;-62
2023/10/31 03:55:36;;;;;;;9.80;3.40;;;10.10;99.90;;;;;;5007902;28;20060;-62
2023/10/31 03:58:01;;;;;;;10.48;3.30;;;10.10;99.90;;;;;;5019584;28;20050;-62
2023/10/31 04:00:27;;;;;;;6.15;3.20;;;10.20;99.90;;;;;;5010291;28;20510;-62
2023/10/31 04:02:53;;;;;;;9.20;3.15;;;10.20;99.90;;;;;;4988543;28;20175;-62
2023/10/31 04:05:19;;;;;;;7.32;3.47;;;10.20;99.90;;;;;;5006617;28;20073;-62
2023/10/31 04:07:46;;;;;;;7.53;3.35;;;10.20;99.90;;;;;;5022211;28;20041;-62
2023/10/31 04:10:12;;;;;;;5.60;2.72;;;10.20;99.90;;;;;;5004131;28;20038;-62
2023/10/31 04:12:39;;;;;;;8.75;3.60;;;10.20;99.90;;;;;;5023151;28;20370;-63
2023/10/31 04:15:05;;;;;;;8.15;2.97;;;10.20;99.90;;;;;;5021499;28;20045;-63
2023/10/31 04:17:31;;;;;;;9.73;3.72;;;10.20;99.90;;;;;;5006231;28;20041;-63
2023/10/31 04:19:57;;;;;;;11.68;3.85;;;10.20;99.90;;;;;;4985187;28;20176;-62
2023/10/31 04:22:23;;;;;;;11.07;3.40;;;10.30;99.90;;;;;;4977501;28;20072;-62
2023/10/31 04:24:49;;;;;;;9.02;3.10;;;10.20;99.90;;;;;;5003060;28;20049;-62
2023/10/31 04:27:14;;;;;;;6.25;3.03;;;10.20;99.90;;;;;;5005106;28;20700;-66
2023/10/31 04:29:40;;;;;;;10.95;3.67;;;10.30;99.90;;;;;;4990427;28;20651;-66
2023/10/31 04:32:06;;;;;;;8.02;2.72;;;10.20;99.90;;;;;;4998158;28;20045;-64
2023/10/31 04:34:32;;;;;;;6.32;2.40;;;10.30;99.90;;;;;;5010056;28;20049;-66
2023/10/31 04:36:57;;;;;;;7.22;2.88;;;10.30;99.90;;;;;;5006052;28;20041;-65
2023/10/31 04:39:23;;;;;;;8.15;2.90;;;10.30;99.90;;;;;;4990570;28;20192;-65
2023/10/31 04:41:49;;;;;;;9.43;2.40;;;10.20;99.90;;;;;;4993589;28;20049;-65
2023/10/31 04:44:16;;;;;;;4.30;2.28;;;10.20;99.90;;;;;;5006222;28;20346;-65
2023/10/31 04:46:42;;;;;;;7.00;2.30;;;10.30;99.90;;;;;;5009853;28;20044;-65
2023/10/31 04:49:08;;;;;;;8.20;2.28;;;10.30;99.90;;;;;;4979826;28;20188;-65
2023/10/31 04:51:35;;;;;;;7.15;2.15;;;10.30;99.90;;;;;;5010585;28;20152;-66
2023/10/31 04:54:01;;;;;;;4.13;1.65;;;10.30;99.90;;;;;;5008494;28;20126;-65
2023/10/31 04:56:26;;;;;;;6.53;2.33;;;10.20;99.90;;;;;;5024514;28;20128;-65
2023/10/31 04:58:52;;;;;;;4.95;2.22;;;10.30;99.90;;;;;;5010158;28;20048;-65
2023/10/31 05:01:19;;;;;;;7.32;2.10;;;10.20;99.90;;;;;;4999672;28;21695;-65
2023/10/31 05:03:45;;;;;;;7.07;1.98;;;10.30;99.90;;;;;;5031622;28;20052;-66
2023/10/31 05:06:11;;;;;;;7.07;2.30;;;10.20;99.90;;;;;;5011934;28;20048;-65
2023/10/31 05:08:37;;;;;;;6.57;2.50;;;10.30;99.90;;;;;;5013456;28;20457;-65
2023/10/31 05:11:02;;;;;;;7.03;2.38;;;10.30;99.90;;;;;;5015578;28;20032;-64
2023/10/31 05:13:28;;;;;;;5.40;2.28;;;10.30;99.90;;;;;;5018443;28;20049;-66
2023/10/31 05:15:54;;;;;;;7.35;1.90;;;10.30;99.90;;;;;;5035339;28;20068;-64
2023/10/31 05:18:20;;;;;;;5.03;1.80;;;10.30;99.90;;;;;;5019608;28;20037;-65
2023/10/31 05:20:46;;;;;;;4.82;1.80;;;10.30;99.90;;;;;;5019772;28;20041;-65
2023/10/31 05:23:12;;;;;;;4.22;1.55;;;10.30;99.90;;;;;;5023102;28;20396;-65
2023/10/31 05:25:38;;;;;;;5.25;1.33;;;10.30;99.90;;;;;;5020214;28;20075;-64
2023/10/31 05:28:04;;;;;;;2.00;1.20;;;10.30;99.90;;;;;;5036744;28;20037;-66
2023/10/31 05:30:30;;;;;;;3.67;1.30;;;10.30;99.90;;;;;;5044471;28;20041;-66
2023/10/31 05:32:56;;;;;;;3.10;0.90;;;10.30;99.90;;;;;;5025892;28;20373;-66
2023/10/31 05:35:22;;;;;;;3.97;0.98;;;10.30;99.90;;;;;;5026450;28;20037;-65
2023/10/31 05:37:48;;;;;;;1.52;0.80;;;10.30;99.90;;;;;;5027572;28;20234;-66
2023/10/31 05:40:15;;;;;;;1.73;1.23;;;10.30;99.90;;;;;;5025776;28;20044;-66
2023/10/31 05:42:41;;;;;;;3.17;1.00;;;10.30;99.90;;;;;;5024283;28;20059;-66
2023/10/31 05:45:08;;;;;;;2.83;1.02;;;10.30;99.90;;;;;;5019275;28;20053;-66
2023/10/31 05:47:34;;;;;;;2.70;0.98;;;10.30;99.90;;;;;;5040016;28;20041;-66
2023/10/31 05:49:59;;;;;;;3.53;1.15;;;10.30;99.90;;;;;;5021683;28;20087;-66
2023/10/31 05:52:32;;;;;;;3.10;1.10;;;10.30;99.90;;;;;;5019214;28;20559;-67
2023/10/31 05:54:58;;;;;;;3.08;0.90;;;10.30;99.90;;;;;;5018971;28;20055;-66
2023/10/31 05:57:23;;;;;;;2.00;1.02;;;10.30;99.90;;;;;;5033629;28;20053;-65
2023/10/31 05:59:49;;;;;;;2.92;1.00;;;10.20;99.90;;;;;;5019609;28;20056;-66
2023/10/31 06:02:15;;;;;;;2.55;1.05;;;10.30;99.90;;;;;;5029543;28;20728;-65
2023/10/31 06:04:41;;;;;;;2.60;1.00;;;10.20;99.90;;;;;;5019643;28;20041;-66
2023/10/31 06:07:07;;;;;;;3.53;1.20;;;10.20;99.90;;;;;;5040280;28;20068;-66
2023/10/31 06:09:33;;;;;;;4.75;1.20;;;10.20;99.90;;;;;;5040908;28;20072;-65
2023/10/31 06:12:02;;;;;;;2.83;1.20;;;10.20;99.90;;;;;;5002976;28;20095;-66
2023/10/31 06:14:28;;;;;;;3.58;1.20;;;10.20;99.90;;;;;;5023665;28;20108;-66
2023/10/31 06:16:54;;;;;;;3.63;1.33;;;10.20;99.90;;;;;;5022490;28;20045;-66
2023/10/31 06:19:20;;;;;;;3.50;1.65;;;10.20;99.90;;;;;;5012247;28;20067;-65
2023/10/31 06:21:46;;;;;;;4.07;1.40;;;10.20;99.90;;;;;;5013610;28;20041;-65
2023/10/31 06:24:12;;;;;;;2.63;1.55;;;10.20;99.90;;;;;;5016241;28;20040;-66
2023/10/31 06:26:38;;;;;;;2.90;1.45;;;10.20;99.90;;;;;;5016963;28;20695;-66
2023/10/31 06:29:04;;;;;;;2.45;1.40;;;10.20;99.90;;;;;;5020855;28;20052;-66
2023/10/31 06:31:30;;;;;;;3.13;1.50;;;10.20;99.90;;;;;;5037763;28;20095;-64
2023/10/31 06:33:55;;;;;;;5.38;1.90;;;10.30;99.90;;;;;;5022769;28;20127;-64
2023/10/31 06:36:21;;;;;;;3.38;1.77;;;10.20;99.90;;;;;;5032526;28;20510;-64
2023/10/31 06:38:47;;;;;;;3.83;1.60;;;10.30;99.90;;;;;;5028905;28;21405;-64
2023/10/31 06:41:13;;;;;;;2.72;1.75;;;10.20;99.90;;;;;;5028162;28;20494;-64
2023/10/31 06:43:39;;;;;;;3.38;1.65;;;10.30;99.90;;;;;;5032693;28;20053;-64
2023/10/31 06:46:05;;;;;;;2.95;1.70;;;10.30;99.90;;;;;;5019383;28;20071;-64
2023/10/31 06:48:31;;;;;;;4.32;1.92;;;10.30;99.90;;;;;;5034667;28;20037;-64
2023/10/31 06:50:57;;;;;;;4.07;2.20;;;10.30;99.90;;;;;;5016033;28;20037;-62
2023/10/31 06:53:22;;;;;;;3.33;2.13;;;10.30;99.90;;;;;;5014155;28;20049;-64
2023/10/31 06:55:48;;;;;;;4.38;2.13;;;10.30;99.90;;;;;;5016634;28;20053;-64
2023/10/31 06:58:14;;;;;;;4.28;2.10;;;10.40;99.90;;;;;;5008454;28;20078;-63
2023/10/31 07:00:40;;;;;;;5.35;2.22;;;10.30;99.90;;;;;;5025468;28;20049;-64
2023/10/31 07:03:14;;;;;;;6.43;2.45;;;10.40;99.90;;;;;;5016992;28;20338;-64
2023/10/31 07:05:40;;;;;;;5.88;2.30;;;10.40;99.90;;;;;;5009971;28;21119;-63
2023/10/31 07:08:06;;;;;;;5.63;2.05;;;10.40;99.90;;;;;;5017503;28;20054;-64
2023/10/31 07:10:33;;;;;;;4.88;2.28;;;10.40;99.90;;;;;;5021748;28;20037;-64
2023/10/31 07:12:59;;;;;;;3.80;2.35;;;10.40;99.90;;;;;;5020791;28;20046;-64
2023/10/31 07:15:25;;;;;;;5.75;2.28;;;10.40;99.90;;;;;;5017640;28;20389;-63
2023/10/31 07:17:51;;;;;;;6.45;2.47;;;10.40;99.90;;;;;;5017314;28;20124;-64
2023/10/31 07:20:17;;;;;;;9.10;2.47;;;10.40;99.90;;;;;;5004063;28;20320;-64
2023/10/31 07:22:43;;;;;;;4.78;2.20;;;10.40;99.90;;;;;;5007969;28;20116;-64
2023/10/31 07:25:09;;;;;;;5.63;2.40;;;10.40;99.90;;;;;;5018544;28;20045;-64
2023/10/31 07:27:35;;;;;;;4.75;2.13;;;10.40;99.90;;;;;;5030980;28;20045;-63
2023/10/31 07:30:03;;;;;;;7.03;2.30;;;10.40;99.90;;;;;;5003082;28;20575;-63
2023/10/31 07:32:29;;;;;;;5.75;2.38;;;10.40;99.90;;;;;;5019923;28;20048;-64
2023/10/31 07:34:58;;;;;;;5.53;2.40;;;10.40;99.90;;;;;;5032958;28;20095;-64
2023/10/31 07:37:23;;;;;;;6.25;2.30;;;10.40;99.90;;;;;;5001677;28;20488;-64
2023/10/31 07:39:50;;;;;;;6.68;2.20;;;10.50;99.90;;;;;;5018778;28;20041;-64
2023/10/31 07:42:16;;;;;;;4.55;2.28;;;10.50;99.90;;;;;;5020749;28;20063;-62
2023/10/31 07:44:42;;;;;;;4.10;1.95;;;10.50;99.90;;;;;;5025806;28;20148;-64
2023/10/31 07:47:08;;;;;;;6.07;1.88;;;10.50;99.90;;;;;;5037003;28;20087;-64
2023/10/31 07:49:34;;;;;;;4.88;2.03;;;10.50;99.90;;;;;;5040911;28;20049;-64
2023/10/31 07:51:59;;;;;;;7.70;2.03;;;10.60;99.90;;;;;;5024698;28;20048;-64
2023/10/31 07:54:25;;;;;;;8.07;1.83;;;10.60;99.90;;;;;;5025846;28;20049;-62
2023/10/31 07:56:51;;;;;;;3.40;1.50;;;10.60;99.90;;;;;;5038402;28;20041;-64
2023/10/31 07:59:16;;;;;;;6.80;1.50;;;10.60;99.90;;;;;;5022291;28;20033;-64
2023/10/31 08:01:42;;;;;;;4.95;1.50;;;10.70;99.90;;;;;;5015470;28;20041;-64
2023/10/31 08:04:08;;;;;;;6.40;1.67;;;10.70;99.90;;;;;;5005470;28;20068;-64
2023/10/31 08:06:34;;;;;;;4.35;1.17;;;10.70;99.90;;;;;;5021769;28;20056;-64
2023/10/31 08:09:00;;;;;;;5.20;1.13;;;10.80;99.90;;;;;;5016962;28;20575;-63
2023/10/31 08:11:25;;;;;;;4.20;1.27;;;10.80;99.90;;;;;;5020477;28;20404;-64
2023/10/31 08:13:53;;;;;;;4.80;1.27;;;10.90;99.90;;;;;;5017768;28;20543;-64
2023/10/31 08:16:19;;;;;;;4.65;1.40;;;10.90;99.90;;;;;;5018143;28;20423;-64
2023/10/31 08:18:46;;;;;;;5.95;1.17;;;11.00;99.90;;;;;;5033796;28;20500;-64
2023/10/31 08:21:12;;;;;;;3.97;1.13;;;11.00;99.90;;;;;;5031153;28;20056;-64
2023/10/31 08:23:38;;;;;;;2.92;1.02;;;11.00;99.90;;;;;;5019651;28;20045;-63
2023/10/31 08:26:04;;;;;;;6.97;1.40;;;11.10;99.90;;;;;;5019689;28;20095;-64
2023/10/31 08:28:30;;;;;;;4.82;1.08;;;11.10;99.90;;;;;;5018046;28;20041;-64
2023/10/31 08:30:59;;;;;;;6.43;1.05;;;11.10;99.90;;;;;;5017803;28;20042;-64
2023/10/31 08:33:25;;;;;;;6.20;1.23;;;11.20;99.90;;;;;;5018664;28;20122;-64
2023/10/31 08:35:51;;;;;;;10.27;1.55;;;11.20;99.90;;;;;;5017859;28;20452;-62
2023/10/31 08:38:17;;;;;;;6.97;1.10;;;11.20;99.90;;;;;;5020045;28;20527;-64
2023/10/31 08:40:43;;;;;;;9.27;1.20;;;11.30;99.90;;;;;;5031770;28;20153;-64
2023/10/31 08:43:09;;;;;;;7.50;1.42;;;11.40;99.90;;;;;;5020330;28;20425;-64
2023/10/31 08:45:35;;;;;;;14.98;1.70;;;11.40;99.90;;;;;;5031173;28;20562;-64
2023/10/31 08:48:01;;;;;;;15.68;1.92;;;11.40;99.90;;;;;;5017426;28;21466;-64
2023/10/31 08:50:27;;;;;;;8.10;1.60;;;11.40;99.90;;;;;;5019113;28;20073;-64
2023/10/31 08:52:53;;;;;;;11.50;1.40;;;11.50;99.90;;;;;;5017686;28;20045;-64
2023/10/31 08:55:20;;;;;;;8.38;1.55;;;11.40;99.90;;;;;;5029989;28;22890;-63
2023/10/31 08:57:45;;;;;;;11.20;1.58;;;11.50;99.90;;;;;;5033882;28;20084;-64
2023/10/31 09:00:13;;;;;;;9.23;1.30;;;11.40;99.90;;;;;;5037884;28;20486;-64
2023/10/31 09:02:39;;;;;;;7.32;1.30;;;11.40;99.90;;;;;;4992926;28;20040;-64
2023/10/31 09:05:05;;;;;;;6.90;1.02;;;11.40;99.90;;;;;;5025380;28;20032;-64
2023/10/31 09:07:32;;;;;;;8.30;1.33;;;11.30;99.90;;;;;;5024087;28;20045;-64
2023/10/31 09:09:58;;;;;;;7.22;1.13;;;11.30;99.90;;;;;;5044830;28;20044;-64
2023/10/31 09:12:23;;;;;;;4.40;1.20;;;11.30;99.90;;;;;;5024122;28;20438;-64
2023/10/31 09:14:49;;;;;;;7.95;1.67;;;11.30;99.90;;;;;;5025747;28;20431;-64
2023/10/31 09:17:15;;;;;;;5.35;0.80;;;11.20;99.90;;;;;;5037945;28;20033;-64
2023/10/31 09:19:40;;;;;;;5.85;0.75;;;11.20;99.90;;;;;;5042032;28;20041;-64
2023/10/31 09:22:06;;;;;;;8.70;1.00;;;11.20;99.90;;;;;;5005471;28;20099;-63
2023/10/31 09:24:33;;;;;;;7.97;1.30;;;11.10;99.90;;;;;;5039801;28;20436;-64
2023/10/31 09:26:58;;;;;;;9.15;1.42;;;11.10;99.90;;;;;;5044829;28;20411;-62
2023/10/31 09:29:24;;;;;;;5.70;0.80;;;11.10;99.90;;;;;;5021709;28;20042;-64
2023/10/31 09:31:50;;;;;;;5.70;0.77;;;11.00;99.90;;;;;;5009220;28;20045;-64
2023/10/31 09:34:15;;;;;;;3.35;0.73;;;11.00;99.90;;;;;;5027158;28;20411;-63
2023/10/31 09:36:42;;;;;;;7.32;0.90;;;11.00;99.90;;;;;;5039306;28;20668;-64
2023/10/31 09:39:08;;;;;;;3.03;0.70;;;10.90;99.90;;;;;;5022411;28;20575;-63
2023/10/31 09:41:33;;;;;;;4.32;0.70;;;11.00;99.90;;;;;;5046141;28;20086;-64
2023/10/31 09:43:59;;;;;;;4.05;0.93;;;11.00;99.90;;;;;;5040620;28;20115;-63
2023/10/31 09:46:25;;;;;;;3.78;0.80;;;11.00;99.90;;;;;;5024056;28;20033;-64
2023/10/31 09:48:51;;;;;;;4.55;0.70;;;11.10;99.90;;;;;;5037933;28;20517;-64
2023/10/31 09:51:17;;;;;;;6.68;0.80;;;11.20;99.90;;;;;;5025320;28;20058;-64
2023/10/31 09:53:46;;;;;;;2.85;0.77;;;11.30;99.90;;;;;;5041618;28;20037;-64
2023/10/31 09:56:12;;;;;;;6.95;1.05;;;11.30;99.90;;;;;;5025041;28;20483;-64
2023/10/31 09:58:39;;;;;;;5.05;1.08;;;11.50;99.90;;;;;;5042544;28;20059;-64
2023/10/31 10:01:05;;;;;;;4.35;0.88;;;11.60;99.90;;;;;;5023018;28;20075;-64
2023/10/31 10:03:31;;;;;;;5.00;1.10;;;11.60;99.90;;;;;;5022191;28;20041;-64
2023/10/31 10:05:58;;;;;;;3.85;1.05;;;11.70;99.90;;;;;;5027351;28;20040;-64
2023/10/31 10:08:23;;;;;;;3.75;1.20;;;11.70;99.90;;;;;;5023172;28;20049;-64
2023/10/31 10:10:51;;;;;;;4.30;0.85;;;11.80;99.90;;;;;;5023231;28;20384;-64
2023/10/31 10:13:23;;;;;;;4.88;0.95;;;11.80;99.90;;;;;;5025003;28;20138;-64
2023/10/31 10:15:54;;;;;;;5.10;0.90;;;11.90;99.90;;;;;;5039058;28;20407;-64
2023/10/31 10:18:31;;;;;;;5.53;1.23;;;12.10;99.90;;;;;;5024156;28;20059;-63
2023/10/31 10:21:02;;;;;;;7.80;1.35;;;12.30;99.90;;;;;;5042848;28;20049;-63
2023/10/31 10:23:29;;;;;;;6.35;0.90;;;12.30;99.90;;;;;;5025342;28;20068;-64
2023/10/31 10:25:57;;;;;;;5.07;0.90;;;12.30;99.90;;;;;;5041441;28;20106;-64
2023/10/31 10:28:26;;;;;;;6.13;1.02;;;12.30;99.90;;;;;;5024125;28;20510;-64
2023/10/31 10:30:53;;;;;;;4.00;1.00;;;12.30;99.90;;;;;;5022354;28;20041;-64
2023/10/31 10:33:20;;;;;;;2.00;0.70;;;12.30;99.90;;;;;;5040690;28;20426;-64
2023/10/31 10:35:46;;;;;;;5.07;0.77;;;12.30;99.90;;;;;;5009841;28;20036;-63
2023/10/31 10:38:22;;;;;;;3.58;0.90;;;12.30;99.90;;;;;;5022205;28;20037;-64
2023/10/31 10:40:49;;;;;;;2.85;0.70;;;12.20;99.90;;;;;;5022926;28;20041;-64
2023/10/31 10:43:22;;;;;;;2.20;0.90;;;12.20;99.90;;;;;;5040147;28;20049;-64
2023/10/31 10:45:57;;;;;;;4.45;0.93;;;12.10;99.90;;;;;;5042192;28;20131;-63
2023/10/31 10:48:27;;;;;;;2.55;0.75;;;12.10;99.90;;;;;;5039730;28;20103;-64
2023/10/31 10:51:16;;;;;;;3.72;0.80;;;12.10;99.90;;;;;;5025481;28;20039;-63
2023/10/31 10:53:49;;;;;;;4.03;0.80;;;12.00;99.90;;;;;;5042119;28;20412;-64
2023/10/31 10:56:37;;;;;;;5.15;1.00;;;12.00;99.90;;;;;;5020008;28;21908;-63
2023/10/31 10:59:13;;;;;;;4.60;1.13;;;12.00;99.90;;;;;;5022637;28;20033;-64
2023/10/31 11:01:39;;;;;;;4.45;0.90;;;12.10;99.90;;;;;;5019638;28;20052;-63
2023/10/31 11:04:06;;;;;;;4.75;0.70;;;12.20;99.90;;;;;;5036453;28;20048;-64
2023/10/31 11:06:34;;;;;;;4.93;1.23;;;12.20;99.90;;;;;;5024170;28;20048;-64
2023/10/31 11:09:00;;;;;;;5.20;1.20;;;12.30;99.90;;;;;;5041859;28;20033;-63
2023/10/31 11:11:27;;;;;;;5.57;1.00;;;12.30;99.90;;;;;;5039527;28;20504;-63
2023/10/31 11:13:56;;;;;;;5.88;0.82;;;12.40;99.90;;;;;;5041359;28;20164;-63
2023/10/31 11:16:42;;;;;;;4.10;0.82;;;12.50;99.90;;;;;;5034874;28;20748;-63
2023/10/31 11:19:09;;;;;;;3.33;1.00;;;12.50;99.90;;;;;;5036872;28;20458;-64
2023/10/31 11:21:35;;;;;;;7.28;1.13;;;12.50;99.90;;;;;;5036397;28;20106;-64
2023/10/31 11:24:01;;;;;;;3.58;0.73;;;12.50;99.90;;;;;;5035804;28;20041;-62
2023/10/31 11:26:29;;;;;;;6.10;1.00;;;12.40;99.90;;;;;;5022921;28;20475;-64
2023/10/31 11:29:05;;;;;;;5.55;1.20;;;12.40;99.90;;;;;;5034907;28;20041;-64
2023/10/31 11:31:35;;;;;;;4.78;1.10;;;12.50;99.90;;;;;;5019454;28;20388;-64
2023/10/31 11:34:04;;;;;;;6.10;1.00;;;12.60;99.90;;;;;;5038432;28;20037;-64
2023/10/31 11:36:33;;;;;;;5.35;1.20;;;12.60;99.90;;;;;;5039907;28;20507;-64
2023/10/31 11:39:16;;;;;;;3.10;0.98;;;12.60;99.90;;;;;;5035153;28;20045;-64
2023/10/31 11:41:55;;;;;;;6.10;1.25;;;12.60;99.90;;;;;;5041078;28;20045;-64
2023/10/31 11:44:28;;;;;;;5.90;1.30;;;12.50;99.90;;;;;;5021392;28;20040;-63
2023/10/31 11:46:53;;;;;;;12.70;1.63;;;12.50;99.90;;;;;;5034933;28;20054;-63
2023/10/31 11:49:48;;;;;;;7.50;1.17;;;12.50;99.90;;;;;;5011090;28;20045;-64
2023/10/31 11:52:17;;;;;;;12.02;1.45;;;12.50;99.90;;;;;;5033894;28;20164;-64
2023/10/31 11:54:43;;;;;;;8.43;1.52;;;12.50;99.90;;;;;;5028722;28;20053;-64
2023/10/31 11:57:09;;;;;;;7.55;1.50;;;12.50;99.90;;;;;;5021190;28;20045;-62
2023/10/31 11:59:39;;;;;;;8.20;1.08;;;12.50;99.90;;;;;;5020115;28;20087;-63
2023/10/31 12:02:18;;;;;;;7.32;1.02;;;12.60;99.90;;;;;;5018441;28;20052;-63
2023/10/31 12:04:44;;;;;;;7.88;1.27;;;12.60;99.90;;;;;;5018530;28;20401;-64
2023/10/31 12:07:10;;;;;;;9.85;1.35;;;12.70;99.90;;;;;;5019199;28;20049;-64
2023/10/31 12:09:47;;;;;;;8.10;2.00;;;12.60;99.90;;;;;;5018262;28;20045;-63
2023/10/31 12:12:12;;;;;;;6.30;1.25;;;12.60;99.90;;;;;;5034752;28;20045;-63
2023/10/31 12:14:38;;;;;;;7.30;1.10;;;12.60;99.90;;;;;;5018217;28;20041;-63
2023/10/31 12:17:06;;;;;;;4.45;1.17;;;12.50;99.90;;;;;;5035141;28;20056;-64
2023/10/31 12:19:32;;;;;;;7.95;1.33;;;12.50;99.90;;;;;;5020491;28;20518;-64
2023/10/31 12:21:58;;;;;;;6.93;1.23;;;12.40;99.90;;;;;;5018320;28;20041;-64
2023/10/31 12:24:24;;;;;;;6.65;1.65;;;12.40;99.90;;;;;;5023854;28;20048;-63
2023/10/31 12:26:51;;;;;;;6.25;1.10;;;12.30;99.90;;;;;;5016952;28;20494;-63
2023/10/31 12:29:21;;;;;;;6.55;1.33;;;12.30;99.90;;;;;;5018165;28;20045;-61
2023/10/31 12:31:52;;;;;;;6.00;1.02;;;12.30;99.90;;;;;;5018314;28;20084;-63
2023/10/31 12:34:22;;;;;;;4.70;1.10;;;12.30;99.90;;;;;;5031788;28;27186;-64
2023/10/31 12:36:51;;;;;;;6.13;1.17;;;12.20;99.90;;;;;;5021859;28;20049;-63
2023/10/31 12:39:21;;;;;;;5.03;1.17;;;12.10;99.90;;;;;;5018640;28;20049;-63
2023/10/31 12:41:47;;;;;;;7.07;1.38;;;12.10;99.90;;;;;;5021367;28;20041;-63
2023/10/31 12:44:26;;;;;;;7.20;1.30;;;12.00;99.90;;;;;;5033076;28;20492;-63